Time;durP1;ratioP1;P1;durP2;ratioP2;P2;SDS_P1;SDS_P2;PMS_P1;PMS_P2;Temp;Humidity;BMP_temperature;BMP_pressure;BME280_temperature;BME280_humidity;BME280_pressure;Samples;Min_cycle;Max_cycle;Signal;HPM_P1;HPM_P2
2022/07/22 00:01:40;;;;;;;17.35;8.90;;;20.10;67.20;;;;;;4997312;28;20054;-45
2022/07/22 00:04:08;;;;;;;17.98;10.38;;;20.10;67.30;;;;;;4997637;28;20053;-45
2022/07/22 00:06:35;;;;;;;14.48;8.57;;;20.00;67.40;;;;;;4992893;28;20057;-47
2022/07/22 00:09:04;;;;;;;19.90;10.10;;;20.00;67.60;;;;;;4999433;28;20072;-47
2022/07/22 00:11:32;;;;;;;22.33;10.65;;;20.00;67.90;;;;;;5002159;28;20054;-46
2022/07/22 00:13:59;;;;;;;24.25;10.50;;;20.00;68.00;;;;;;4996708;28;20054;-46
2022/07/22 00:16:27;;;;;;;21.85;11.02;;;19.90;68.20;;;;;;4995994;28;20506;-48
2022/07/22 00:18:54;;;;;;;19.98;11.93;;;19.90;68.30;;;;;;4997200;28;20064;-46
2022/07/22 00:21:21;;;;;;;23.52;11.57;;;19.90;68.60;;;;;;4996526;28;20062;-50
2022/07/22 00:23:49;;;;;;;19.83;12.18;;;19.80;68.80;;;;;;4995623;28;20054;-46
2022/07/22 00:26:18;;;;;;;19.05;12.02;;;19.80;68.90;;;;;;4997484;28;20060;-48
2022/07/22 00:28:45;;;;;;;20.45;11.50;;;19.80;69.20;;;;;;5000164;28;20517;-46
2022/07/22 00:31:13;;;;;;;25.48;11.95;;;19.70;69.40;;;;;;5002397;28;20056;-47
2022/07/22 00:33:41;;;;;;;23.50;11.63;;;19.70;69.60;;;;;;5001163;28;20058;-46
2022/07/22 00:36:09;;;;;;;29.77;12.73;;;19.70;69.60;;;;;;4999094;28;20046;-47
2022/07/22 00:38:37;;;;;;;24.00;12.52;;;19.60;69.80;;;;;;4997655;28;20053;-48
2022/07/22 00:41:04;;;;;;;18.40;11.00;;;19.60;70.00;;;;;;4995696;28;20498;-46
2022/07/22 00:43:52;;;;;;;22.88;11.43;;;19.60;70.10;;;;;;4995440;28;20052;-49
2022/07/22 00:46:19;;;;;;;24.70;14.70;;;19.60;70.50;;;;;;4995062;28;20050;-48
2022/07/22 00:48:47;;;;;;;23.33;15.18;;;19.60;70.20;;;;;;4998135;28;20542;-49
2022/07/22 00:51:14;;;;;;;26.95;15.15;;;19.60;70.20;;;;;;4999979;28;20066;-49
2022/07/22 00:53:42;;;;;;;18.75;13.05;;;19.60;70.20;;;;;;5002100;28;20054;-48
2022/07/22 00:56:10;;;;;;;26.83;15.02;;;19.60;70.30;;;;;;4998973;28;20046;-47
2022/07/22 00:58:37;;;;;;;24.00;14.18;;;19.60;70.40;;;;;;5000254;28;20509;-45
2022/07/22 01:01:06;;;;;;;26.27;13.85;;;19.60;70.40;;;;;;4998290;28;20065;-48
2022/07/22 01:03:34;;;;;;;16.58;11.85;;;19.60;70.60;;;;;;5000913;28;20521;-46
2022/07/22 01:06:01;;;;;;;19.08;11.85;;;19.60;70.60;;;;;;5001801;28;20068;-47
2022/07/22 01:08:29;;;;;;;19.50;10.68;;;19.60;70.70;;;;;;5002032;28;20053;-48
2022/07/22 01:11:07;;;;;;;21.35;11.93;;;19.60;70.60;;;;;;5001094;28;20062;-45
2022/07/22 01:13:34;;;;;;;20.08;12.60;;;19.60;70.80;;;;;;5002856;28;20049;-47
2022/07/22 01:16:02;;;;;;;26.10;13.02;;;19.70;70.50;;;;;;4998176;28;20429;-48
2022/07/22 01:18:31;;;;;;;23.33;12.93;;;19.70;70.50;;;;;;5003174;28;20042;-48
2022/07/22 01:21:00;;;;;;;29.23;13.40;;;19.70;70.40;;;;;;5001138;28;20053;-47
2022/07/22 01:23:28;;;;;;;22.48;13.63;;;19.70;70.10;;;;;;5003010;28;20065;-46
2022/07/22 01:25:55;;;;;;;23.15;12.85;;;19.70;70.20;;;;;;4996738;28;20421;-47
2022/07/22 01:28:23;;;;;;;29.10;15.98;;;19.70;70.20;;;;;;5000487;28;20046;-46
2022/07/22 01:30:51;;;;;;;26.20;15.25;;;19.70;70.10;;;;;;5000430;28;20050;-46
2022/07/22 01:33:19;;;;;;;22.15;14.10;;;19.60;70.00;;;;;;5001934;28;20054;-46
2022/07/22 01:35:47;;;;;;;25.90;15.82;;;19.60;70.10;;;;;;5001607;28;20532;-48
2022/07/22 01:38:16;;;;;;;26.30;15.65;;;19.60;70.40;;;;;;4993423;28;20055;-46
2022/07/22 01:40:45;;;;;;;29.30;17.50;;;19.50;70.50;;;;;;4997454;28;20054;-46
2022/07/22 01:43:15;;;;;;;35.45;17.45;;;19.50;70.60;;;;;;4999118;28;20042;-49
2022/07/22 01:45:43;;;;;;;36.50;21.10;;;19.50;70.80;;;;;;4997661;28;20502;-46
2022/07/22 01:48:10;;;;;;;29.30;17.85;;;19.40;70.90;;;;;;5001080;28;20050;-47
2022/07/22 01:50:38;;;;;;;36.63;20.95;;;19.40;71.00;;;;;;5002873;28;20137;-45
2022/07/22 01:53:05;;;;;;;36.88;21.02;;;19.40;71.20;;;;;;5001840;28;20073;-46
2022/07/22 01:55:35;;;;;;;35.00;20.63;;;19.40;71.30;;;;;;4999539;28;20060;-49
2022/07/22 01:58:03;;;;;;;31.95;20.25;;;19.30;71.30;;;;;;4997664;28;20050;-49
2022/07/22 02:00:31;;;;;;;30.73;19.52;;;19.30;71.20;;;;;;5001490;28;20061;-45
2022/07/22 02:02:59;;;;;;;35.65;19.92;;;19.30;71.20;;;;;;5002316;28;20996;-46
2022/07/22 02:05:26;;;;;;;38.67;20.50;;;19.30;71.30;;;;;;4999824;28;20081;-50
2022/07/22 02:07:54;;;;;;;31.10;20.13;;;19.30;71.30;;;;;;4999993;28;20077;-47
2022/07/22 02:10:21;;;;;;;32.10;18.40;;;19.20;71.30;;;;;;5001416;28;20425;-47
2022/07/22 02:12:50;;;;;;;36.17;19.77;;;19.20;71.30;;;;;;5000895;28;20068;-50
2022/07/22 02:15:17;;;;;;;33.92;19.00;;;19.20;71.10;;;;;;4998905;28;20053;-48
2022/07/22 02:17:45;;;;;;;39.20;19.17;;;19.20;71.00;;;;;;4994890;28;20053;-46
2022/07/22 02:20:13;;;;;;;35.20;19.25;;;19.20;71.00;;;;;;5001195;28;20053;-47
2022/07/22 02:22:41;;;;;;;35.30;19.42;;;19.20;70.90;;;;;;5001046;28;20049;-48
2022/07/22 02:25:08;;;;;;;33.25;17.45;;;19.20;70.70;;;;;;5002626;28;20062;-50
2022/07/22 02:27:36;;;;;;;31.75;17.48;;;19.10;70.60;;;;;;4996618;28;20406;-46
2022/07/22 02:30:08;;;;;;;30.75;17.58;;;19.20;70.80;;;;;;5003109;28;20054;-47
2022/07/22 02:32:36;;;;;;;33.17;16.67;;;19.20;70.90;;;;;;5002085;28;20057;-46
2022/07/22 02:35:04;;;;;;;27.02;15.15;;;19.20;70.80;;;;;;5002764;28;20058;-47
2022/07/22 02:37:32;;;;;;;26.38;16.35;;;19.20;70.70;;;;;;4996014;28;20125;-46
2022/07/22 02:39:59;;;;;;;30.48;15.30;;;19.20;70.60;;;;;;5002990;28;20064;-47
2022/07/22 02:42:26;;;;;;;26.08;15.00;;;19.20;70.70;;;;;;4999518;28;20512;-50
2022/07/22 02:44:54;;;;;;;22.20;15.02;;;19.20;70.80;;;;;;5001043;28;20058;-48
2022/07/22 02:47:23;;;;;;;24.10;15.18;;;19.20;70.90;;;;;;4996529;28;20054;-49
2022/07/22 02:49:50;;;;;;;26.75;16.30;;;19.20;70.90;;;;;;5001181;28;20046;-46
2022/07/22 02:52:18;;;;;;;21.92;14.80;;;19.20;70.90;;;;;;5001015;28;20054;-50
2022/07/22 02:54:45;;;;;;;28.42;15.85;;;19.20;71.00;;;;;;5002888;28;20068;-50
2022/07/22 02:57:13;;;;;;;25.25;15.48;;;19.30;71.00;;;;;;4997291;28;20498;-45
2022/07/22 02:59:40;;;;;;;25.42;15.57;;;19.30;71.10;;;;;;5002208;28;20054;-47
2022/07/22 03:02:07;;;;;;;26.02;15.10;;;19.30;71.10;;;;;;5000739;28;20054;-47
2022/07/22 03:04:36;;;;;;;23.05;14.32;;;19.30;71.00;;;;;;5002469;28;20062;-46
2022/07/22 03:07:04;;;;;;;21.73;12.20;;;19.30;70.70;;;;;;4994323;28;20058;-48
2022/07/22 03:09:31;;;;;;;31.85;14.07;;;19.40;70.60;;;;;;5001464;28;20390;-49
2022/07/22 03:11:59;;;;;;;27.20;13.30;;;19.40;70.40;;;;;;5001406;28;20080;-46
2022/07/22 03:14:26;;;;;;;27.35;13.57;;;19.40;70.20;;;;;;4999910;28;20056;-46
2022/07/22 03:16:53;;;;;;;22.83;13.07;;;19.40;69.90;;;;;;4997742;28;20410;-47
2022/07/22 03:19:21;;;;;;;21.13;11.75;;;19.40;70.20;;;;;;4999525;28;20041;-49
2022/07/22 03:21:50;;;;;;;21.45;12.00;;;19.40;69.90;;;;;;5000327;28;20053;-47
2022/07/22 03:24:18;;;;;;;24.45;11.70;;;19.40;69.90;;;;;;5002092;28;20065;-46
2022/07/22 03:26:46;;;;;;;27.20;11.98;;;19.40;69.60;;;;;;4999633;28;20050;-46
2022/07/22 03:29:13;;;;;;;21.83;11.90;;;19.30;69.60;;;;;;4999885;28;20054;-46
2022/07/22 03:31:40;;;;;;;19.20;11.20;;;19.30;69.60;;;;;;5000005;28;20383;-45
2022/07/22 03:34:08;;;;;;;23.25;11.32;;;19.30;69.60;;;;;;5000306;28;20054;-46
2022/07/22 03:36:35;;;;;;;19.08;11.35;;;19.30;69.70;;;;;;5000267;28;20058;-46
2022/07/22 03:39:04;;;;;;;17.98;10.68;;;19.30;69.60;;;;;;4999388;28;20050;-49
2022/07/22 03:41:32;;;;;;;17.23;10.27;;;19.30;69.80;;;;;;5000487;28;20065;-45
2022/07/22 03:43:59;;;;;;;17.33;10.05;;;19.20;69.70;;;;;;4999664;28;20498;-46
2022/07/22 03:46:27;;;;;;;22.17;10.85;;;19.20;69.80;;;;;;4997059;28;20189;-46
2022/07/22 03:48:54;;;;;;;19.55;9.38;;;19.20;69.90;;;;;;5002102;28;20057;-46
2022/07/22 03:51:21;;;;;;;15.48;9.32;;;19.20;70.00;;;;;;4999280;28;20057;-48
2022/07/22 03:53:49;;;;;;;16.88;10.15;;;19.20;70.00;;;;;;4999061;28;20506;-48
2022/07/22 03:56:18;;;;;;;18.90;9.85;;;19.20;70.00;;;;;;4996753;28;20050;-51
2022/07/22 03:58:45;;;;;;;14.82;10.07;;;19.20;69.90;;;;;;5003646;28;20058;-46
2022/07/22 04:01:12;;;;;;;22.40;10.90;;;19.20;69.80;;;;;;5004042;28;20054;-48
2022/07/22 04:03:40;;;;;;;18.65;10.88;;;19.20;69.90;;;;;;5004876;28;20049;-47
2022/07/22 04:06:08;;;;;;;15.35;9.13;;;19.20;70.00;;;;;;5002914;28;20061;-48
2022/07/22 04:08:35;;;;;;;18.90;9.90;;;19.20;70.00;;;;;;5004636;28;20061;-49
2022/07/22 04:11:03;;;;;;;16.05;8.80;;;19.20;70.00;;;;;;5005789;28;20076;-46
2022/07/22 04:13:31;;;;;;;15.30;9.15;;;19.20;70.00;;;;;;5001464;28;20053;-49
2022/07/22 04:15:59;;;;;;;19.42;10.68;;;19.20;70.10;;;;;;4998302;28;20046;-48
2022/07/22 04:18:26;;;;;;;14.82;8.80;;;19.20;70.20;;;;;;4995375;28;20054;-48
2022/07/22 04:20:54;;;;;;;17.08;9.52;;;19.20;70.10;;;;;;4996869;28;20391;-46
2022/07/22 04:23:21;;;;;;;14.30;8.10;;;19.30;70.10;;;;;;5005388;28;20061;-46
2022/07/22 04:25:49;;;;;;;14.95;8.48;;;19.30;70.10;;;;;;4998798;28;20065;-46
2022/07/22 04:28:16;;;;;;;14.40;8.43;;;19.30;70.10;;;;;;4996878;28;20062;-45
2022/07/22 04:30:45;;;;;;;13.38;7.88;;;19.30;70.10;;;;;;5001336;28;20490;-46
2022/07/22 04:33:13;;;;;;;16.90;8.13;;;19.40;70.20;;;;;;5010247;28;20045;-46
2022/07/22 04:35:40;;;;;;;14.00;7.60;;;19.40;70.20;;;;;;4999333;28;20060;-47
2022/07/22 04:38:07;;;;;;;19.35;8.73;;;19.40;70.10;;;;;;5001528;28;20070;-50
2022/07/22 04:40:35;;;;;;;18.27;7.40;;;19.50;70.10;;;;;;5004905;28;20077;-46
2022/07/22 04:43:03;;;;;;;12.38;7.43;;;19.50;70.00;;;;;;5001118;28;20057;-46
2022/07/22 04:45:30;;;;;;;15.20;9.10;;;19.50;69.80;;;;;;4999206;28;20045;-48
2022/07/22 04:47:59;;;;;;;11.68;7.55;;;19.60;69.60;;;;;;5005259;28;20054;-47
2022/07/22 04:50:26;;;;;;;12.52;8.35;;;19.60;69.40;;;;;;4998135;28;20046;-45
2022/07/22 04:52:54;;;;;;;14.88;9.10;;;19.60;69.20;;;;;;5000056;28;20124;-46
2022/07/22 04:55:21;;;;;;;10.73;7.72;;;19.70;69.10;;;;;;4999365;28;20041;-47
2022/07/22 04:57:49;;;;;;;8.80;6.63;;;19.70;69.10;;;;;;4995086;28;20058;-45
2022/07/22 05:00:17;;;;;;;13.43;7.90;;;19.70;69.00;;;;;;5002127;28;20392;-46
2022/07/22 05:02:45;;;;;;;13.93;7.38;;;19.80;68.90;;;;;;4996290;28;20498;-46
2022/07/22 05:05:14;;;;;;;13.68;7.50;;;19.80;68.80;;;;;;4996339;28;20046;-49
2022/07/22 05:07:41;;;;;;;15.20;8.38;;;19.80;68.60;;;;;;4991318;28;20049;-47
2022/07/22 05:10:10;;;;;;;22.52;11.30;;;19.80;68.40;;;;;;5002103;28;20528;-46
2022/07/22 05:12:37;;;;;;;18.42;10.30;;;19.90;68.20;;;;;;5001622;28;20069;-48
2022/07/22 05:15:05;;;;;;;13.13;9.02;;;19.90;68.20;;;;;;5002886;28;20065;-50
2022/07/22 05:17:33;;;;;;;12.23;8.98;;;19.90;68.10;;;;;;4998448;28;20050;-46
2022/07/22 05:20:03;;;;;;;14.70;8.73;;;19.90;68.00;;;;;;5004573;28;20062;-46
2022/07/22 05:22:32;;;;;;;12.27;8.00;;;19.90;67.80;;;;;;5001270;28;20053;-46
2022/07/22 05:25:00;;;;;;;16.58;9.23;;;20.00;67.80;;;;;;5000837;28;20058;-45
2022/07/22 05:27:27;;;;;;;13.23;9.00;;;20.00;67.70;;;;;;4999637;28;20065;-50
2022/07/22 05:29:55;;;;;;;11.13;9.07;;;20.00;67.60;;;;;;5001445;28;20054;-46
2022/07/22 05:32:22;;;;;;;15.90;8.48;;;20.00;67.40;;;;;;5000650;28;20502;-48
2022/07/22 05:34:50;;;;;;;14.02;9.20;;;20.10;67.40;;;;;;4993668;28;20069;-47
2022/07/22 05:37:17;;;;;;;15.15;9.75;;;20.10;67.30;;;;;;4984984;28;20596;-53
2022/07/22 05:39:46;;;;;;;15.85;9.00;;;20.10;67.10;;;;;;4978536;28;20050;-46
2022/07/22 05:42:14;;;;;;;11.88;8.70;;;20.10;67.00;;;;;;4984561;28;20395;-48
2022/07/22 05:44:43;;;;;;;12.88;8.05;;;20.10;66.90;;;;;;4976826;28;20077;-48
2022/07/22 05:47:11;;;;;;;19.98;11.27;;;20.10;66.80;;;;;;4976266;28;20054;-48
2022/07/22 05:49:40;;;;;;;17.67;10.63;;;20.20;66.60;;;;;;4980061;28;20410;-46
2022/07/22 05:52:09;;;;;;;17.25;11.55;;;20.10;66.10;;;;;;4982247;28;20062;-48
2022/07/22 05:54:37;;;;;;;16.48;11.43;;;20.20;66.10;;;;;;4983688;28;20060;-50
2022/07/22 05:57:09;;;;;;;19.35;10.50;;;20.10;66.10;;;;;;4980219;28;20058;-48
2022/07/22 05:59:38;;;;;;;17.80;9.93;;;20.10;65.80;;;;;;4977617;28;20498;-46
2022/07/22 06:02:07;;;;;;;16.45;9.82;;;20.10;65.90;;;;;;4986580;28;20054;-46
2022/07/22 06:04:35;;;;;;;21.73;10.68;;;20.00;65.90;;;;;;4985754;28;20084;-49
2022/07/22 06:07:02;;;;;;;13.15;8.45;;;20.00;66.10;;;;;;4987579;28;20057;-46
2022/07/22 06:09:30;;;;;;;15.73;10.60;;;20.00;66.40;;;;;;4978581;28;20390;-47
2022/07/22 06:11:57;;;;;;;17.35;10.82;;;20.00;66.70;;;;;;4979345;28;20054;-49
2022/07/22 06:14:26;;;;;;;25.75;12.00;;;19.90;66.80;;;;;;4984004;28;20399;-49
2022/07/22 06:16:54;;;;;;;17.75;11.10;;;20.00;66.40;;;;;;4983511;28;20057;-46
2022/07/22 06:19:21;;;;;;;21.20;12.38;;;19.90;65.90;;;;;;5000694;28;20049;-47
2022/07/22 06:21:48;;;;;;;17.00;10.90;;;19.90;65.90;;;;;;4991887;28;20654;-49
2022/07/22 06:24:16;;;;;;;16.88;10.63;;;19.90;66.30;;;;;;4985188;28;20068;-47
2022/07/22 06:26:44;;;;;;;18.80;11.00;;;19.90;66.60;;;;;;4987657;28;20057;-48
2022/07/22 06:29:11;;;;;;;17.10;11.25;;;19.90;67.00;;;;;;4983484;28;20058;-46
2022/07/22 06:31:40;;;;;;;25.10;12.63;;;19.80;67.80;;;;;;4995676;28;20054;-45
2022/07/22 06:34:08;;;;;;;16.63;11.68;;;19.80;67.20;;;;;;4997760;28;20056;-50
2022/07/22 06:36:35;;;;;;;20.17;12.88;;;19.80;67.20;;;;;;4982626;28;20064;-47
2022/07/22 06:39:03;;;;;;;20.02;12.65;;;19.80;67.00;;;;;;4992955;28;20061;-50
2022/07/22 06:41:30;;;;;;;20.63;13.23;;;19.90;67.10;;;;;;4987337;28;20061;-48
2022/07/22 06:43:58;;;;;;;17.48;12.15;;;19.80;66.90;;;;;;4987641;28;20064;-48
2022/07/22 06:46:25;;;;;;;19.25;11.85;;;19.80;67.00;;;;;;4985929;28;20058;-47
2022/07/22 06:48:55;;;;;;;20.00;12.65;;;19.80;67.30;;;;;;4993851;28;20054;-48
2022/07/22 06:51:23;;;;;;;22.95;12.93;;;19.80;67.60;;;;;;4987663;28;20054;-45
2022/07/22 06:53:50;;;;;;;23.92;13.75;;;19.80;67.70;;;;;;4994758;28;20146;-49
2022/07/22 06:56:18;;;;;;;20.75;12.32;;;19.90;67.70;;;;;;4982881;28;20057;-47
2022/07/22 06:58:45;;;;;;;20.80;12.82;;;19.90;67.80;;;;;;4994928;28;20053;-45
2022/07/22 07:01:13;;;;;;;15.77;11.02;;;19.90;67.80;;;;;;4996907;28;20050;-46
2022/07/22 07:03:40;;;;;;;19.63;12.55;;;19.90;67.80;;;;;;5000591;28;20054;-46
2022/07/22 07:06:11;;;;;;;23.60;13.82;;;20.00;68.00;;;;;;4991385;28;20076;-48
2022/07/22 07:08:38;;;;;;;12.88;10.30;;;20.00;67.30;;;;;;4993294;28;20064;-45
2022/07/22 07:11:06;;;;;;;19.10;10.55;;;20.00;67.20;;;;;;4995450;28;20053;-47
2022/07/22 07:13:34;;;;;;;22.02;12.63;;;20.10;67.20;;;;;;4996758;28;20053;-49
2022/07/22 07:16:01;;;;;;;17.92;11.88;;;20.10;67.10;;;;;;4992510;28;20422;-46
2022/07/22 07:18:29;;;;;;;18.48;13.35;;;20.20;66.90;;;;;;4995677;28;20413;-45
2022/07/22 07:20:56;;;;;;;15.48;11.15;;;20.20;66.30;;;;;;4993452;28;20058;-48
2022/07/22 07:23:25;;;;;;;16.65;11.00;;;20.20;65.70;;;;;;4997247;28;20058;-46
2022/07/22 07:25:53;;;;;;;16.75;10.90;;;20.30;66.00;;;;;;4994835;28;20057;-47
2022/07/22 07:28:21;;;;;;;18.70;12.30;;;20.30;66.30;;;;;;4996466;28;20057;-49
2022/07/22 07:30:48;;;;;;;16.80;11.50;;;20.30;66.30;;;;;;4997622;28;20072;-49
2022/07/22 07:33:18;;;;;;;15.35;11.75;;;20.40;66.50;;;;;;5004496;28;20054;-46
2022/07/22 07:35:46;;;;;;;13.88;11.23;;;20.40;66.50;;;;;;5003050;28;20050;-46
2022/07/22 07:38:15;;;;;;;21.10;12.32;;;20.50;67.10;;;;;;5004543;28;20058;-47
2022/07/22 07:40:50;;;;;;;14.30;10.25;;;20.60;66.20;;;;;;5003292;28;20053;-47
2022/07/22 07:43:18;;;;;;;15.77;10.48;;;20.60;65.60;;;;;;4999970;28;20050;-50
2022/07/22 07:45:46;;;;;;;17.05;10.93;;;20.70;65.60;;;;;;4999932;28;20061;-46
2022/07/22 07:48:14;;;;;;;15.98;9.50;;;20.70;65.60;;;;;;5005741;28;20061;-46
2022/07/22 07:50:41;;;;;;;13.90;9.63;;;20.80;65.50;;;;;;5005473;28;20041;-49
2022/07/22 07:53:09;;;;;;;21.10;12.27;;;20.80;65.20;;;;;;5004086;28;20061;-46
2022/07/22 07:55:38;;;;;;;17.05;11.88;;;20.90;64.70;;;;;;4999483;28;20510;-47
2022/07/22 07:58:06;;;;;;;21.83;12.85;;;20.90;63.40;;;;;;5002586;28;20054;-46
2022/07/22 08:00:34;;;;;;;18.83;13.63;;;20.90;63.10;;;;;;5004026;28;20041;-45
2022/07/22 08:03:02;;;;;;;21.35;13.93;;;20.90;62.90;;;;;;5004635;28;20050;-46
2022/07/22 08:05:30;;;;;;;19.45;13.45;;;20.90;62.70;;;;;;4999542;28;20058;-47
2022/07/22 08:07:58;;;;;;;20.95;13.02;;;20.90;62.60;;;;;;5003248;28;20414;-46
2022/07/22 08:10:28;;;;;;;18.40;13.10;;;20.90;62.40;;;;;;4993209;28;20049;-49
2022/07/22 08:12:57;;;;;;;18.60;12.80;;;20.80;62.40;;;;;;4997355;28;20426;-45
2022/07/22 08:15:26;;;;;;;17.98;12.80;;;20.80;62.60;;;;;;5002059;28;20053;-47
2022/07/22 08:18:04;;;;;;;19.25;12.23;;;20.80;62.50;;;;;;4998858;28;20054;-47
2022/07/22 08:20:37;;;;;;;23.95;12.85;;;20.80;62.20;;;;;;5004048;28;20046;-47
2022/07/22 08:23:06;;;;;;;17.15;12.10;;;20.80;62.10;;;;;;4994326;28;20498;-45
2022/07/22 08:25:36;;;;;;;13.90;11.07;;;20.80;62.40;;;;;;4980661;28;20068;-50
2022/07/22 08:28:05;;;;;;;19.67;11.93;;;20.80;62.50;;;;;;4979481;28;20529;-48
2022/07/22 08:30:39;;;;;;;22.02;12.27;;;20.70;62.40;;;;;;4995010;28;20663;-47
2022/07/22 08:33:08;;;;;;;18.35;11.70;;;20.70;62.20;;;;;;4994971;28;20744;-48
2022/07/22 08:35:38;;;;;;;13.93;10.55;;;20.80;63.00;;;;;;4997954;28;20064;-49
2022/07/22 08:38:07;;;;;;;18.55;10.95;;;20.80;62.90;;;;;;4989245;28;20502;-48
2022/07/22 08:40:38;;;;;;;18.52;11.63;;;20.80;62.70;;;;;;4992509;28;20057;-47
2022/07/22 08:43:07;;;;;;;16.15;9.43;;;20.80;62.80;;;;;;4997091;28;20064;-49
2022/07/22 08:45:42;;;;;;;11.65;8.40;;;20.80;61.60;;;;;;4983916;28;20053;-51
2022/07/22 08:48:11;;;;;;;12.13;8.77;;;20.80;61.70;;;;;;5003103;28;20415;-46
2022/07/22 08:50:43;;;;;;;12.65;8.98;;;20.80;62.40;;;;;;4997618;28;21029;-46
2022/07/22 08:53:14;;;;;;;13.90;9.18;;;20.90;63.70;;;;;;4995834;28;20089;-45
2022/07/22 08:55:44;;;;;;;9.82;7.68;;;20.90;61.90;;;;;;4982205;28;20065;-47
2022/07/22 08:58:17;;;;;;;13.98;7.72;;;21.00;61.90;;;;;;4996755;28;20422;-46
2022/07/22 09:01:07;;;;;;;10.40;6.78;;;21.00;59.90;;;;;;4999114;28;20056;-47
2022/07/22 09:03:45;;;;;;;10.57;6.63;;;21.00;59.40;;;;;;5000912;28;20525;-45
2022/07/22 09:06:14;;;;;;;7.10;5.75;;;21.10;59.80;;;;;;5000600;28;20057;-48
2022/07/22 09:08:57;;;;;;;10.20;6.20;;;21.10;59.90;;;;;;5004387;28;20524;-47
2022/07/22 09:11:33;;;;;;;7.57;5.10;;;21.20;59.60;;;;;;4993742;28;20045;-45
2022/07/22 09:14:05;;;;;;;9.05;6.68;;;21.20;60.10;;;;;;5001218;28;20061;-45
2022/07/22 09:16:48;;;;;;;8.30;6.13;;;21.30;59.20;;;;;;4993020;28;20060;-46
2022/07/22 09:19:18;;;;;;;11.02;6.47;;;21.40;59.30;;;;;;5001175;28;20053;-46
2022/07/22 09:21:50;;;;;;;6.63;5.75;;;21.40;59.20;;;;;;4997075;28;21148;-47
2022/07/22 09:24:39;;;;;;;8.60;5.97;;;21.50;59.30;;;;;;5001012;28;20391;-51
2022/07/22 09:27:11;;;;;;;11.65;6.45;;;21.50;57.90;;;;;;4997666;28;20061;-46
2022/07/22 09:29:40;;;;;;;8.10;5.53;;;21.60;58.10;;;;;;5001614;28;20700;-48
2022/07/22 09:32:11;;;;;;;7.55;6.15;;;21.60;57.90;;;;;;4995323;28;20056;-46
2022/07/22 09:34:40;;;;;;;6.60;5.75;;;21.60;58.30;;;;;;5000312;28;20502;-46
2022/07/22 09:39:53;;;;;;;7.65;6.43;;;21.70;58.80;;;;;;5000437;28;20061;-49
2022/07/22 09:42:22;;;;;;;9.65;6.93;;;21.70;58.80;;;;;;4997970;28;20069;-47
2022/07/22 09:44:52;;;;;;;9.13;6.38;;;21.80;58.90;;;;;;5001773;28;20405;-48
2022/07/22 09:47:32;;;;;;;9.82;6.93;;;21.80;58.80;;;;;;4994947;28;20054;-47
2022/07/22 09:50:01;;;;;;;9.32;6.63;;;21.80;58.70;;;;;;5002243;28;20065;-47
2022/07/22 09:52:30;;;;;;;8.75;7.28;;;21.90;58.70;;;;;;5002391;28;20553;-49
2022/07/22 09:55:00;;;;;;;9.25;7.28;;;22.00;58.70;;;;;;4994606;28;21204;-47
2022/07/22 09:57:30;;;;;;;10.45;7.35;;;22.10;58.90;;;;;;4998365;28;20057;-45
2022/07/22 10:00:09;;;;;;;10.00;7.93;;;22.10;57.90;;;;;;5001170;28;20141;-46
2022/07/22 10:02:46;;;;;;;11.82;7.65;;;22.20;56.50;;;;;;4999010;28;20042;-45
2022/07/22 10:05:26;;;;;;;13.75;8.38;;;22.20;55.60;;;;;;5003479;28;20057;-45
2022/07/22 10:07:55;;;;;;;9.40;7.25;;;22.20;55.20;;;;;;4993805;28;20065;-48
2022/07/22 10:10:25;;;;;;;13.68;8.25;;;22.20;55.40;;;;;;4996737;28;20057;-45
2022/07/22 10:12:56;;;;;;;14.48;8.98;;;22.30;56.20;;;;;;4990475;28;20061;-49
2022/07/22 10:15:34;;;;;;;9.15;6.85;;;22.30;56.10;;;;;;4988032;28;20054;-47
2022/07/22 10:18:15;;;;;;;10.73;7.57;;;22.30;56.30;;;;;;4993410;28;20057;-46
2022/07/22 10:20:43;;;;;;;10.23;7.05;;;22.30;55.90;;;;;;5001731;28;20061;-46
2022/07/22 10:23:15;;;;;;;8.15;6.70;;;22.40;56.40;;;;;;5002094;28;20058;-51
2022/07/22 10:25:56;;;;;;;11.70;7.03;;;22.40;56.50;;;;;;4997858;28;20065;-48
2022/07/22 10:28:29;;;;;;;12.90;8.50;;;22.40;55.60;;;;;;5001374;28;20058;-45
2022/07/22 10:31:20;;;;;;;14.75;8.07;;;22.50;54.40;;;;;;5001559;28;20054;-46
2022/07/22 10:33:58;;;;;;;11.52;7.75;;;22.50;55.00;;;;;;5002923;28;20053;-46
2022/07/22 10:36:34;;;;;;;10.30;7.65;;;22.50;54.80;;;;;;5002416;28;20077;-46
2022/07/22 10:39:09;;;;;;;15.88;7.80;;;22.50;54.50;;;;;;5002738;28;20058;-45
2022/07/22 10:41:41;;;;;;;7.70;5.93;;;22.60;55.10;;;;;;5000704;28;20053;-50
2022/07/22 10:44:13;;;;;;;8.35;6.38;;;22.60;55.50;;;;;;4999810;28;20062;-48
2022/07/22 10:46:53;;;;;;;12.10;7.30;;;22.60;55.80;;;;;;4993865;28;20045;-47
2022/07/22 10:49:30;;;;;;;8.80;7.43;;;22.70;56.00;;;;;;4991172;28;20061;-48
2022/07/22 10:52:16;;;;;;;10.32;6.95;;;22.80;56.00;;;;;;4986992;28;20056;-49
2022/07/22 10:55:20;;;;;;;8.43;6.57;;;22.90;56.00;;;;;;4991778;28;20057;-54
2022/07/22 10:57:52;;;;;;;9.10;6.83;;;23.00;55.80;;;;;;4940816;28;20055;-52
2022/07/22 11:00:28;;;;;;;8.93;7.00;;;23.10;55.60;;;;;;4940402;28;20170;-51
2022/07/22 11:02:58;;;;;;;10.35;7.53;;;23.10;55.60;;;;;;4975411;28;20054;-46
2022/07/22 11:05:30;;;;;;;11.63;6.72;;;23.20;55.50;;;;;;5001724;28;20054;-46
2022/07/22 11:08:01;;;;;;;10.57;6.93;;;23.30;55.20;;;;;;5001992;28;20413;-47
2022/07/22 11:10:32;;;;;;;9.95;7.53;;;23.30;55.00;;;;;;5001417;28;20061;-46
2022/07/22 11:13:03;;;;;;;10.98;7.57;;;23.40;54.60;;;;;;5000481;28;20046;-48
2022/07/22 11:15:32;;;;;;;9.52;6.55;;;23.40;53.10;;;;;;5002074;28;20049;-46
2022/07/22 11:18:01;;;;;;;11.13;7.65;;;23.40;53.30;;;;;;5002508;28;20058;-50
2022/07/22 11:20:32;;;;;;;9.52;7.18;;;23.40;53.20;;;;;;5002044;28;20513;-45
2022/07/22 11:23:03;;;;;;;9.00;6.97;;;23.40;53.20;;;;;;5000133;28;20060;-45
2022/07/22 11:25:33;;;;;;;13.18;8.30;;;23.40;53.60;;;;;;4996957;28;20046;-50
2022/07/22 11:28:02;;;;;;;11.73;8.63;;;23.40;53.10;;;;;;4999112;28;20054;-48
2022/07/22 11:30:31;;;;;;;8.50;7.03;;;23.40;52.70;;;;;;5001478;28;20418;-46
2022/07/22 11:33:00;;;;;;;12.55;7.97;;;23.40;53.20;;;;;;5002121;28;20053;-47
2022/07/22 11:35:28;;;;;;;11.98;8.98;;;23.40;53.40;;;;;;5002301;28;20057;-47
2022/07/22 11:37:59;;;;;;;9.95;7.38;;;23.40;52.90;;;;;;5000959;28;20053;-46
2022/07/22 11:40:37;;;;;;;10.60;8.25;;;23.40;52.60;;;;;;4999710;28;20053;-46
2022/07/22 11:43:10;;;;;;;10.32;7.38;;;23.40;51.80;;;;;;4998376;28;20509;-47
2022/07/22 11:45:58;;;;;;;9.03;6.50;;;23.50;52.50;;;;;;5000073;28;20054;-48
2022/07/22 11:48:28;;;;;;;9.63;6.78;;;23.50;52.40;;;;;;4999468;28;20081;-47
2022/07/22 11:51:02;;;;;;;7.03;6.00;;;23.50;52.60;;;;;;5000370;28;20064;-50
2022/07/22 11:53:34;;;;;;;9.00;7.57;;;23.50;52.00;;;;;;5000895;28;20099;-45
2022/07/22 11:56:04;;;;;;;8.90;6.28;;;23.50;51.50;;;;;;5001279;28;20058;-47
2022/07/22 11:58:45;;;;;;;10.35;8.02;;;23.50;51.90;;;;;;4998587;28;20058;-46
2022/07/22 12:01:16;;;;;;;10.52;7.28;;;23.50;51.60;;;;;;4999780;28;20054;-45
2022/07/22 12:03:50;;;;;;;10.52;7.03;;;23.50;52.30;;;;;;5001344;28;20521;-46
2022/07/22 12:06:22;;;;;;;8.18;6.78;;;23.60;53.00;;;;;;5000959;28;20058;-48
2022/07/22 12:08:54;;;;;;;11.00;7.10;;;23.60;52.00;;;;;;5000729;28;20054;-46
2022/07/22 12:11:26;;;;;;;12.60;7.80;;;23.70;51.50;;;;;;5000919;28;20500;-46
2022/07/22 12:13:54;;;;;;;11.63;8.18;;;23.70;51.10;;;;;;5000106;28;20058;-47
2022/07/22 12:16:28;;;;;;;9.30;7.25;;;23.70;51.90;;;;;;5001531;28;20050;-46
2022/07/22 12:18:58;;;;;;;12.30;7.93;;;23.70;52.60;;;;;;5005079;28;20425;-45
2022/07/22 12:21:28;;;;;;;12.52;7.60;;;23.80;51.80;;;;;;5005345;28;20108;-53
2022/07/22 12:24:05;;;;;;;9.52;6.22;;;23.80;51.60;;;;;;5005258;28;20058;-45
2022/07/22 12:26:47;;;;;;;8.93;7.05;;;23.80;51.80;;;;;;4995711;28;20069;-45
2022/07/22 12:29:44;;;;;;;9.95;6.97;;;23.80;51.90;;;;;;4987138;28;20445;-48
2022/07/22 12:32:17;;;;;;;10.80;7.15;;;23.90;51.90;;;;;;4996584;28;20050;-53
2022/07/22 12:34:48;;;;;;;13.38;7.88;;;23.90;51.60;;;;;;4989395;28;20061;-45
2022/07/22 12:37:21;;;;;;;9.70;6.32;;;24.00;51.20;;;;;;4990848;28;20065;-45
2022/07/22 12:40:08;;;;;;;9.27;6.68;;;24.00;51.20;;;;;;5001808;28;20062;-47
2022/07/22 12:42:38;;;;;;;10.20;6.90;;;24.00;51.30;;;;;;5002964;28;20046;-45
2022/07/22 12:45:09;;;;;;;9.20;6.88;;;24.00;51.00;;;;;;4996640;28;20046;-48
2022/07/22 12:47:49;;;;;;;11.02;7.90;;;24.00;51.10;;;;;;4987184;28;20586;-56
2022/07/22 12:50:31;;;;;;;9.07;6.95;;;24.00;50.80;;;;;;4983675;28;20058;-48